Time;durP1;ratioP1;P1;durP2;ratioP2;P2;SDS_P1;SDS_P2;PMS_P1;PMS_P2;Temp;Humidity;BMP_temperature;BMP_pressure;BME280_temperature;BME280_humidity;BME280_pressure;Samples;Min_cycle;Max_cycle;Signal;HPM_P1;HPM_P2
2023/08/06 00:00:06;;;;;;;5.15;4.00;;;14.90;99.90;;;14.59;100.00;96504.22;5077481;28;20032;-37
2023/08/06 00:02:32;;;;;;;5.47;4.70;;;14.90;99.90;;;14.61;100.00;96504.97;5075937;28;20028;-38
2023/08/06 00:04:57;;;;;;;5.75;4.38;;;14.90;99.90;;;14.64;100.00;96511.84;5076183;28;20031;-37
2023/08/06 00:07:23;;;;;;;4.85;4.07;;;14.90;99.90;;;14.64;100.00;96507.41;5054852;22;20717;-37
2023/08/06 00:09:49;;;;;;;4.93;4.18;;;14.90;99.90;;;14.51;100.00;96493.22;5026987;28;20123;-36
2023/08/06 00:12:14;;;;;;;5.13;3.60;;;14.90;99.90;;;14.46;100.00;96500.66;5028806;28;20033;-37
2023/08/06 00:14:40;;;;;;;3.85;3.08;;;14.70;99.90;;;14.31;100.00;96492.75;5030287;28;20441;-37
2023/08/06 00:17:06;;;;;;;3.38;3.03;;;14.60;99.90;;;14.18;100.00;96494.53;5030564;28;20099;-37
2023/08/06 00:19:32;;;;;;;3.45;3.00;;;14.50;99.90;;;14.03;100.00;96483.16;5027355;28;20477;-37
2023/08/06 00:21:58;;;;;;;3.40;2.80;;;14.40;99.90;;;13.90;100.00;96491.00;5030218;28;20052;-37
2023/08/06 00:24:23;;;;;;;3.13;2.80;;;14.20;99.90;;;13.78;100.00;96489.16;5030143;28;20028;-36
2023/08/06 00:26:49;;;;;;;3.30;3.00;;;14.10;99.90;;;13.58;100.00;96473.69;5026573;28;20679;-37
2023/08/06 00:29:15;;;;;;;3.97;2.97;;;14.00;99.90;;;13.59;100.00;96493.97;5022799;28;20309;-37
2023/08/06 00:31:41;;;;;;;3.60;2.95;;;13.90;99.90;;;13.47;100.00;96496.41;5025222;28;20033;-36
2023/08/06 00:34:07;;;;;;;6.18;3.00;;;13.80;99.90;;;13.36;100.00;96499.72;5028711;28;20038;-36
2023/08/06 00:36:33;;;;;;;5.55;2.75;;;13.70;99.90;;;13.23;100.00;96482.03;5022639;28;20029;-36
2023/08/06 00:38:59;;;;;;;3.15;2.70;;;13.60;99.90;;;13.17;100.00;96483.25;5028855;28;20035;-37
2023/08/06 00:41:24;;;;;;;3.80;2.90;;;13.50;99.90;;;13.12;100.00;96485.34;5027389;28;20508;-36
2023/08/06 00:43:50;;;;;;;3.95;2.83;;;13.50;99.90;;;12.96;100.00;96477.50;5029595;28;20074;-36
2023/08/06 00:46:16;;;;;;;3.60;2.65;;;13.40;99.90;;;12.98;100.00;96483.56;5027174;28;20064;-36
2023/08/06 00:48:42;;;;;;;4.50;2.65;;;13.30;99.90;;;12.93;100.00;96485.63;5029446;28;20115;-37
2023/08/06 00:51:11;;;;;;;3.97;2.67;;;13.30;99.90;;;12.87;100.00;96480.72;5031872;28;20086;-37
2023/08/06 00:53:38;;;;;;;3.10;2.47;;;13.20;99.90;;;12.80;100.00;96469.66;5028483;28;20529;-36
2023/08/06 00:56:04;;;;;;;2.42;2.22;;;13.10;99.90;;;12.78;100.00;96471.53;5024321;28;20032;-36
2023/08/06 00:58:30;;;;;;;2.97;2.65;;;13.10;99.90;;;12.75;100.00;96469.06;5027407;28;20612;-37
2023/08/06 01:00:55;;;;;;;3.08;2.40;;;13.10;99.90;;;12.71;100.00;96463.13;5021206;28;20029;-36
2023/08/06 01:03:21;;;;;;;3.00;2.65;;;13.10;99.90;;;12.66;100.00;96464.34;5021774;28;20067;-36
2023/08/06 01:05:47;;;;;;;3.15;2.38;;;13.00;99.90;;;12.64;100.00;96463.59;5022436;28;20244;-36
2023/08/06 01:08:34;;;;;;;4.55;2.70;;;13.00;99.90;;;12.60;100.00;96455.81;5030268;28;20419;-36
2023/08/06 01:11:27;;;;;;;5.03;2.60;;;13.00;99.90;;;12.56;100.00;96461.38;5024769;28;20651;-36
2023/08/06 01:14:10;;;;;;;;;;;12.90;99.90;;;12.55;100.00;96459.69;5030690;28;20585;-36
2023/08/06 01:16:36;;;;;;;;;;;12.90;99.90;;;12.53;100.00;96457.13;5025462;28;19966;-36
2023/08/06 01:19:02;;;;;;;6.25;2.70;;;12.90;99.90;;;12.60;100.00;96457.63;5029102;28;19923;-36
2023/08/06 01:21:28;;;;;;;5.28;3.08;;;12.90;99.90;;;12.67;100.00;96456.31;5025690;28;20177;-36
2023/08/06 01:23:54;;;;;;;3.70;2.95;;;13.00;99.90;;;12.73;100.00;96449.78;5029947;28;20029;-36
2023/08/06 01:26:28;;;;;;;3.92;3.10;;;13.10;99.90;;;12.81;100.00;96444.88;5027164;28;20083;-36
2023/08/06 01:29:07;;;;;;;3.58;3.20;;;13.10;99.90;;;12.88;100.00;96446.19;5028845;28;20146;-36
2023/08/06 01:31:42;;;;;;;5.40;3.80;;;13.20;99.90;;;12.94;100.00;96442.34;5025853;28;20040;-36
2023/08/06 01:34:17;;;;;;;4.32;3.33;;;13.30;99.90;;;12.89;100.00;96428.56;5023402;28;20025;-37
2023/08/06 01:36:43;;;;;;;4.30;2.78;;;13.30;99.90;;;12.95;100.00;96441.38;5029375;28;20037;-36
2023/08/06 01:39:09;;;;;;;4.95;2.67;;;13.30;99.90;;;12.96;100.00;96437.81;5029092;28;20064;-36
2023/08/06 01:41:34;;;;;;;5.65;2.88;;;13.30;99.90;;;12.94;100.00;96434.41;5026917;28;20599;-36
2023/08/06 01:44:00;;;;;;;4.57;2.72;;;13.30;99.90;;;12.93;100.00;96430.06;5032193;28;20029;-37
2023/08/06 01:46:26;;;;;;;3.47;3.08;;;13.30;99.90;;;12.91;100.00;96437.25;5028275;28;20083;-37
2023/08/06 01:48:52;;;;;;;3.17;2.85;;;13.20;99.90;;;12.92;100.00;96441.56;5037569;28;20081;-37
2023/08/06 01:51:17;;;;;;;3.28;2.83;;;13.20;99.90;;;12.90;100.00;96431.09;5031790;28;20044;-37
2023/08/06 01:53:43;;;;;;;3.15;2.80;;;13.20;99.90;;;12.88;100.00;96434.78;5030655;28;20060;-37
2023/08/06 01:56:09;;;;;;;4.07;3.10;;;13.20;99.90;;;12.85;100.00;96434.94;5033056;28;20028;-36
2023/08/06 01:58:34;;;;;;;3.55;3.03;;;13.20;99.90;;;12.80;100.00;96428.16;5033146;28;20029;-37
2023/08/06 02:01:02;;;;;;;4.00;3.00;;;13.10;99.90;;;12.68;100.00;96410.38;5031732;28;20078;-37
2023/08/06 02:03:27;;;;;;;3.83;3.20;;;13.10;99.90;;;12.69;100.00;96417.38;5012278;28;20706;-37
2023/08/06 02:05:54;;;;;;;4.30;2.80;;;13.10;99.90;;;12.65;100.00;96420.31;5027873;28;20440;-37
2023/08/06 02:08:19;;;;;;;2.40;2.20;;;13.00;99.90;;;12.51;100.00;96400.84;5025640;28;20037;-37
2023/08/06 02:10:45;;;;;;;4.18;2.65;;;12.90;99.90;;;12.52;100.00;96412.28;5024085;28;20120;-37
2023/08/06 02:13:11;;;;;;;3.97;2.47;;;12.80;99.90;;;12.41;100.00;96403.19;5034409;28;20402;-37
2023/08/06 02:15:48;;;;;;;3.97;2.80;;;12.80;99.90;;;12.39;100.00;96394.50;5029084;28;20338;-37
2023/08/06 02:18:15;;;;;;;3.15;2.50;;;12.80;99.90;;;12.35;100.00;96392.97;5026610;28;20072;-37
2023/08/06 02:20:41;;;;;;;4.88;2.70;;;12.70;99.90;;;12.28;100.00;96391.66;5018150;28;20415;-37
2023/08/06 02:23:07;;;;;;;3.75;2.80;;;12.60;99.90;;;12.18;100.00;96372.00;5024335;28;20265;-37
2023/08/06 02:25:33;;;;;;;3.20;2.42;;;12.60;99.90;;;12.20;100.00;96393.88;5006230;28;20040;-37
2023/08/06 02:27:58;;;;;;;2.50;2.30;;;12.60;99.90;;;12.18;100.00;96379.91;5022122;28;20029;-37
2023/08/06 02:30:24;;;;;;;3.63;2.53;;;12.50;99.90;;;12.03;100.00;96348.19;5026590;28;20071;-37
2023/08/06 02:32:50;;;;;;;3.72;2.95;;;12.50;99.90;;;12.13;100.00;96374.94;5028985;28;20025;-37
2023/08/06 02:35:16;;;;;;;3.13;2.67;;;12.50;99.90;;;12.06;100.00;96364.78;5029957;28;20071;-37
2023/08/06 02:37:41;;;;;;;6.57;3.00;;;12.50;99.90;;;12.08;100.00;96365.53;5024721;28;20480;-37
2023/08/06 02:40:08;;;;;;;2.78;2.58;;;12.50;99.90;;;12.05;100.00;96365.75;5016915;28;20881;-37
2023/08/06 02:42:33;;;;;;;3.15;2.80;;;12.40;99.90;;;12.02;100.00;96372.91;5025507;28;20082;-37
2023/08/06 02:44:59;;;;;;;5.32;2.97;;;12.40;99.90;;;11.90;100.00;96351.59;5024800;28;20033;-37
2023/08/06 02:47:25;;;;;;;3.38;2.67;;;12.30;99.90;;;11.97;100.00;96359.13;5025480;28;20128;-37
2023/08/06 02:49:50;;;;;;;2.88;2.58;;;12.30;99.90;;;11.96;100.00;96354.78;5013173;28;20585;-37
2023/08/06 02:52:16;;;;;;;3.25;2.78;;;12.30;99.90;;;11.95;100.00;96355.72;5016980;28;20224;-37
2023/08/06 02:54:43;;;;;;;3.50;2.58;;;12.30;99.90;;;12.01;100.00;96354.50;5019870;28;20264;-37
2023/08/06 02:57:08;;;;;;;4.28;2.67;;;12.40;99.90;;;12.03;100.00;96347.34;5026080;28;20095;-37
2023/08/06 02:59:34;;;;;;;4.65;3.00;;;12.40;99.90;;;12.04;100.00;96341.09;5021316;28;20029;-37
2023/08/06 03:02:00;;;;;;;3.00;2.70;;;12.40;99.90;;;11.87;100.00;96312.19;5022689;28;20143;-37
2023/08/06 03:04:25;;;;;;;3.00;2.80;;;12.40;99.90;;;12.03;100.00;96345.53;5022534;28;20037;-37
2023/08/06 03:06:51;;;;;;;4.47;2.90;;;12.40;99.90;;;12.05;100.00;96339.31;5018232;28;20341;-37
2023/08/06 03:09:18;;;;;;;5.47;2.70;;;12.40;99.90;;;12.04;100.00;96341.09;5020073;28;20406;-37
2023/08/06 03:11:43;;;;;;;3.38;2.72;;;12.40;99.90;;;12.07;100.00;96332.16;5022637;28;20068;-37
2023/08/06 03:14:09;;;;;;;3.20;2.85;;;12.50;99.90;;;12.09;100.00;96328.47;5023356;28;20111;-37
2023/08/06 03:16:35;;;;;;;4.63;3.00;;;12.50;99.90;;;12.16;100.00;96326.31;5016356;28;20524;-36
2023/08/06 03:19:01;;;;;;;4.30;3.00;;;12.50;99.90;;;12.19;100.00;96321.69;5016421;28;20037;-37
2023/08/06 03:21:27;;;;;;;4.20;2.78;;;12.60;99.90;;;12.16;100.00;96308.66;5021689;28;20068;-37
2023/08/06 03:23:53;;;;;;;4.88;3.00;;;12.60;99.90;;;12.29;100.00;96319.34;5030498;28;20059;-37
2023/08/06 03:26:18;;;;;;;5.03;2.95;;;12.70;99.90;;;12.32;100.00;96323.59;5026822;28;20037;-37
2023/08/06 03:28:44;;;;;;;5.00;3.10;;;12.70;99.90;;;12.36;100.00;96330.38;5020301;28;20068;-37
2023/08/06 03:31:10;;;;;;;5.20;2.55;;;12.70;99.90;;;12.38;100.00;96336.41;5024608;28;20044;-37
2023/08/06 03:33:36;;;;;;;5.00;3.00;;;12.70;99.90;;;12.36;100.00;96336.53;5014549;28;20095;-37
2023/08/06 03:36:02;;;;;;;2.78;2.42;;;12.70;99.90;;;12.25;100.00;96322.25;5021841;28;20039;-37
2023/08/06 03:38:27;;;;;;;3.97;2.58;;;12.70;99.90;;;12.40;100.00;96345.13;5021502;28;20036;-37
2023/08/06 03:40:53;;;;;;;2.42;2.10;;;12.80;99.90;;;12.43;100.00;96342.28;5021693;28;20098;-37
2023/08/06 03:43:19;;;;;;;3.15;2.25;;;12.80;99.90;;;12.35;100.00;96324.25;5021149;28;20041;-37
2023/08/06 03:45:45;;;;;;;4.03;2.40;;;12.80;99.90;;;12.45;100.00;96331.63;5008887;28;20501;-37
2023/08/06 03:48:11;;;;;;;4.00;2.88;;;12.80;99.90;;;12.40;100.00;96327.47;5016771;28;20052;-37
2023/08/06 03:50:37;;;;;;;3.08;2.20;;;12.80;99.90;;;12.49;100.00;96339.28;5014885;28;20041;-37
2023/08/06 03:53:03;;;;;;;3.40;2.20;;;12.80;99.90;;;12.51;100.00;96336.53;5014673;28;20082;-37
2023/08/06 03:55:29;;;;;;;3.00;2.30;;;12.90;99.90;;;12.52;100.00;96328.50;5017166;28;20038;-37
2023/08/06 03:57:54;;;;;;;4.45;2.22;;;12.90;99.90;;;12.56;100.00;96337.06;5018909;28;20526;-37
2023/08/06 04:00:20;;;;;;;3.78;2.28;;;12.90;99.90;;;12.52;100.00;96330.28;5021652;28;20029;-37
2023/08/06 04:02:46;;;;;;;3.25;2.60;;;12.90;99.90;;;12.60;100.00;96342.09;5008508;28;20117;-37
2023/08/06 04:05:12;;;;;;;8.20;2.45;;;13.00;99.90;;;12.50;100.00;96313.66;5014811;28;20205;-37
2023/08/06 04:07:37;;;;;;;4.88;2.40;;;13.00;99.90;;;12.59;100.00;96318.38;5017896;28;20047;-37
2023/08/06 04:10:04;;;;;;;2.60;2.17;;;13.00;99.90;;;12.67;100.00;96332.00;5019449;28;20131;-37
2023/08/06 04:12:31;;;;;;;3.03;2.25;;;13.00;99.90;;;12.62;100.00;96323.50;5017047;28;20029;-37
2023/08/06 04:14:58;;;;;;;6.30;2.47;;;13.10;99.90;;;12.65;100.00;96348.88;5022048;28;20059;-37
2023/08/06 04:17:24;;;;;;;2.80;2.38;;;13.00;99.90;;;12.56;100.00;96345.88;5014159;28;20965;-37
2023/08/06 04:19:55;;;;;;;5.07;2.58;;;13.10;99.90;;;12.62;100.00;96360.53;5014014;28;20032;-36
2023/08/06 04:22:21;;;;;;;5.25;2.38;;;13.00;99.90;;;12.62;100.00;96368.47;5019228;28;20044;-37
2023/08/06 04:24:48;;;;;;;3.70;2.38;;;13.00;99.90;;;12.57;100.00;96346.72;5015244;28;20028;-37
2023/08/06 04:27:15;;;;;;;3.63;2.20;;;13.00;99.90;;;12.59;100.00;96353.59;5014880;28;20032;-36
2023/08/06 04:29:41;;;;;;;2.45;2.00;;;13.00;99.90;;;12.65;100.00;96360.34;5022642;28;20124;-37
2023/08/06 04:32:09;;;;;;;5.55;2.20;;;13.00;99.90;;;12.65;100.00;96355.06;5016378;28;20028;-37
2023/08/06 04:34:36;;;;;;;2.60;1.92;;;13.00;99.90;;;12.68;100.00;96360.13;5017292;28;20251;-37
2023/08/06 04:37:03;;;;;;;2.70;2.10;;;13.00;99.90;;;12.64;100.00;96345.41;5022054;28;20056;-37
2023/08/06 04:39:28;;;;;;;3.35;1.85;;;13.00;99.90;;;12.71;100.00;96359.94;5014355;28;20033;-37
2023/08/06 04:41:58;;;;;;;2.20;1.77;;;13.10;99.90;;;12.72;100.00;96351.09;5017979;28;20029;-37
2023/08/06 04:44:23;;;;;;;3.13;2.10;;;13.10;99.90;;;12.53;100.00;96319.63;5029593;28;20478;-37
2023/08/06 04:46:49;;;;;;;4.78;2.30;;;13.10;99.90;;;12.70;100.00;96350.28;5009132;28;20112;-36
2023/08/06 04:49:15;;;;;;;2.78;1.90;;;13.00;99.90;;;12.71;100.00;96359.94;5020025;28;20036;-36
2023/08/06 04:51:41;;;;;;;3.75;2.10;;;13.10;99.90;;;12.68;100.00;96362.78;5029224;28;20033;-37
2023/08/06 04:54:07;;;;;;;7.25;2.20;;;13.10;99.90;;;12.64;100.00;96363.91;5027396;28;20029;-37
2023/08/06 04:56:32;;;;;;;4.85;2.00;;;13.00;99.90;;;12.69;100.00;96369.78;5025976;28;20037;-37
2023/08/06 04:58:59;;;;;;;3.13;2.10;;;13.10;99.90;;;12.65;100.00;96370.91;5027573;28;20575;-37
2023/08/06 05:01:25;;;;;;;3.92;1.80;;;13.00;99.90;;;12.60;100.00;96367.72;5045876;28;20401;-37
2023/08/06 05:03:51;;;;;;;3.70;2.30;;;12.90;99.90;;;12.51;100.00;96358.53;5030293;28;20033;-37
2023/08/06 05:06:16;;;;;;;4.63;2.05;;;12.90;99.90;;;12.55;100.00;96367.97;5024506;28;20481;-38
2023/08/06 05:08:42;;;;;;;2.70;2.03;;;12.90;99.90;;;12.52;100.00;96365.50;5025611;28;20036;-37
2023/08/06 05:11:09;;;;;;;3.45;2.03;;;12.90;99.90;;;12.54;100.00;96373.34;5026819;28;20045;-36
2023/08/06 05:13:35;;;;;;;2.70;1.95;;;12.90;99.90;;;12.48;100.00;96369.28;5022878;28;20041;-36
2023/08/06 05:16:00;;;;;;;3.17;1.80;;;12.90;99.90;;;12.51;100.00;96365.63;5026134;28;20056;-36
2023/08/06 05:18:26;;;;;;;2.45;1.80;;;12.80;99.90;;;12.52;100.00;96367.31;5016020;28;20508;-36
2023/08/06 05:20:52;;;;;;;2.85;1.88;;;12.90;99.90;;;12.47;100.00;96353.50;5018739;28;20048;-36
2023/08/06 05:23:17;;;;;;;3.10;1.70;;;12.90;99.90;;;12.70;100.00;96354.75;5026530;28;20034;-36
2023/08/06 05:25:43;;;;;;;3.75;1.50;;;13.00;99.90;;;12.78;100.00;96355.97;5021718;28;20028;-36
2023/08/06 05:28:09;;;;;;;3.83;1.63;;;13.10;99.90;;;12.99;100.00;96363.50;5028393;28;20068;-36
2023/08/06 05:30:39;;;;;;;1.83;1.40;;;13.30;99.90;;;13.20;100.00;96366.59;5025470;28;20029;-37
2023/08/06 05:33:05;;;;;;;2.22;1.50;;;13.50;99.90;;;13.42;100.00;96365.22;5032554;28;20032;-36
2023/08/06 05:35:31;;;;;;;2.58;1.50;;;13.70;99.90;;;13.64;100.00;96369.97;5028887;28;21353;-36
2023/08/06 05:37:56;;;;;;;2.80;1.67;;;13.90;99.90;;;13.83;100.00;96365.16;5028286;28;20206;-37
2023/08/06 05:40:22;;;;;;;2.00;1.33;;;14.10;99.90;;;14.06;100.00;96371.56;5028248;28;20029;-36
2023/08/06 05:42:48;;;;;;;1.88;1.60;;;14.40;99.90;;;14.18;100.00;96377.03;5025835;28;20060;-36
2023/08/06 05:45:14;;;;;;;1.98;1.20;;;14.60;99.90;;;14.28;100.00;96376.28;5025505;28;20036;-37
2023/08/06 05:47:40;;;;;;;2.38;1.30;;;14.70;99.90;;;14.37;100.00;96379.25;5024611;28;20573;-37
2023/08/06 05:50:07;;;;;;;2.03;1.02;;;14.70;99.90;;;14.41;100.00;96383.38;5025641;28;20090;-36
2023/08/06 05:52:32;;;;;;;1.90;1.20;;;14.80;99.90;;;14.35;100.00;96365.25;5019782;28;20094;-36
2023/08/06 05:54:58;;;;;;;2.80;1.20;;;14.80;99.90;;;14.19;100.00;96354.84;5022863;28;20049;-36
2023/08/06 05:57:24;;;;;;;2.15;1.33;;;14.80;99.90;;;14.34;100.00;96380.34;5026343;28;20044;-36
2023/08/06 05:59:49;;;;;;;2.70;1.33;;;14.80;99.90;;;14.31;100.00;96384.03;5025315;28;20043;-36
2023/08/06 06:02:16;;;;;;;1.17;0.90;;;14.70;99.90;;;14.35;100.00;96387.31;5014635;28;20562;-36
2023/08/06 06:04:41;;;;;;;3.88;0.90;;;14.80;99.90;;;14.29;100.00;96390.41;5022602;28;20044;-36
2023/08/06 06:07:07;;;;;;;2.15;1.00;;;14.70;99.90;;;14.20;100.00;96383.91;5028837;28;20025;-36
2023/08/06 06:09:33;;;;;;;2.33;0.80;;;14.70;99.90;;;14.15;100.00;96395.78;5026491;28;20037;-36
2023/08/06 06:11:58;;;;;;;2.10;0.90;;;14.60;99.90;;;14.08;100.00;96405.94;5016555;28;20025;-36
2023/08/06 06:14:24;;;;;;;1.33;0.68;;;14.60;99.90;;;13.89;100.00;96374.50;5022886;28;20040;-36
2023/08/06 06:16:50;;;;;;;3.90;0.80;;;14.50;99.90;;;14.01;100.00;96388.75;5019691;28;20029;-36
2023/08/06 06:19:15;;;;;;;2.88;1.13;;;14.50;99.90;;;14.03;100.00;96400.97;5023422;28;20029;-37
2023/08/06 06:21:41;;;;;;;0.55;0.52;;;14.50;99.90;;;14.07;100.00;96396.31;5026049;28;20037;-36
2023/08/06 06:24:08;;;;;;;0.95;0.70;;;14.50;99.90;;;14.02;100.00;96401.06;5019170;28;20041;-36
2023/08/06 06:26:33;;;;;;;1.00;0.63;;;14.50;99.90;;;13.93;100.00;96394.56;5028006;28;20493;-36
2023/08/06 06:28:59;;;;;;;2.40;0.50;;;14.40;99.90;;;13.96;100.00;96401.47;5030846;28;20051;-36
2023/08/06 06:31:25;;;;;;;2.25;0.60;;;14.40;99.90;;;13.99;100.00;96403.91;5026182;28;21061;-36
2023/08/06 06:33:53;;;;;;;0.77;0.50;;;14.40;99.90;;;13.99;100.00;96412.69;5016271;28;20037;-37
2023/08/06 06:36:18;;;;;;;2.30;0.52;;;14.40;99.90;;;14.01;100.00;96409.94;5021165;28;20434;-38
2023/08/06 06:38:44;;;;;;;2.33;0.60;;;14.40;99.90;;;14.02;100.00;96417.81;5020320;28;20658;-38
2023/08/06 06:41:10;;;;;;;1.90;0.55;;;14.50;99.90;;;14.06;100.00;96418.47;5013194;28;20502;-37
2023/08/06 06:43:38;;;;;;;0.68;0.40;;;14.50;99.90;;;14.22;100.00;96412.97;5021097;28;20033;-37
2023/08/06 06:46:03;;;;;;;2.88;0.52;;;14.60;99.90;;;14.37;100.00;96416.38;5021763;28;20032;-37
2023/08/06 06:48:32;;;;;;;1.08;0.60;;;14.80;99.90;;;14.58;100.00;96417.59;5037308;28;20034;-37
2023/08/06 06:50:58;;;;;;;2.95;0.70;;;15.00;99.90;;;14.72;100.00;96419.31;5018817;28;20025;-37
2023/08/06 06:53:28;;;;;;;1.27;0.50;;;15.20;99.90;;;14.85;100.00;96424.63;5016957;28;20134;-36
2023/08/06 06:56:04;;;;;;;0.98;0.50;;;15.30;99.90;;;14.77;100.00;96416.31;5006988;28;20049;-36
2023/08/06 06:58:33;;;;;;;1.38;0.60;;;15.30;99.90;;;14.76;100.00;96419.97;5015576;28;20618;-37
2023/08/06 07:00:59;;;;;;;2.63;0.82;;;15.20;99.90;;;14.64;100.00;96405.72;5015626;28;22137;-37
2023/08/06 07:03:25;;;;;;;1.30;0.40;;;15.20;99.90;;;14.63;100.00;96423.44;5019504;28;20029;-38
2023/08/06 07:05:51;;;;;;;2.42;0.60;;;15.10;99.90;;;14.51;100.00;96414.47;5021684;28;20024;-37
2023/08/06 07:08:17;;;;;;;1.90;0.70;;;15.00;99.90;;;14.41;100.00;96410.78;5024616;28;20028;-38
2023/08/06 07:10:43;;;;;;;2.03;0.55;;;14.90;99.90;;;14.36;100.00;96420.00;5021542;28;20128;-37
2023/08/06 07:13:09;;;;;;;1.42;0.60;;;14.80;99.90;;;14.34;100.00;96422.75;5018071;28;20127;-37
2023/08/06 07:15:35;;;;;;;1.42;0.50;;;14.80;99.90;;;14.31;100.00;96418.50;5024738;28;20040;-37
2023/08/06 07:18:01;;;;;;;1.75;0.30;;;14.70;99.90;;;14.30;100.00;96423.91;5020604;28;20045;-36
2023/08/06 07:20:31;;;;;;;0.82;0.52;;;14.70;99.90;;;14.27;100.00;96426.78;5017947;28;20040;-37
2023/08/06 07:22:58;;;;;;;1.25;0.60;;;14.70;99.90;;;14.21;100.00;96421.88;5020210;28;20025;-37
2023/08/06 07:25:23;;;;;;;0.82;0.40;;;14.60;99.90;;;14.17;100.00;96429.19;5005253;28;21639;-38
2023/08/06 07:27:49;;;;;;;0.85;0.50;;;14.60;99.90;;;14.11;100.00;96419.00;5019543;28;20545;-38
2023/08/06 07:30:15;;;;;;;1.25;0.50;;;14.60;99.90;;;14.14;100.00;96429.41;5033495;28;20792;-37
2023/08/06 07:32:40;;;;;;;0.70;0.50;;;14.50;99.90;;;14.19;100.00;96429.09;5018965;28;20033;-38
2023/08/06 07:35:09;;;;;;;0.40;0.40;;;14.60;99.90;;;14.22;100.00;96439.50;5025611;28;20128;-38
2023/08/06 07:37:35;;;;;;;2.58;0.60;;;14.70;99.90;;;14.22;100.00;96428.88;5015801;28;20111;-37
2023/08/06 07:40:01;;;;;;;2.85;0.55;;;14.60;99.90;;;14.27;100.00;96432.94;5024588;28;20029;-37
2023/08/06 07:42:26;;;;;;;1.35;0.52;;;14.70;99.90;;;14.36;100.00;96430.63;5020528;28;20552;-38
2023/08/06 07:44:58;;;;;;;3.35;0.82;;;14.80;99.90;;;14.44;100.00;96433.59;5022299;28;20087;-38
2023/08/06 07:47:23;;;;;;;1.48;0.57;;;14.90;99.90;;;14.51;100.00;96432.22;5025515;28;20080;-39
2023/08/06 07:49:49;;;;;;;0.77;0.50;;;15.00;99.90;;;14.52;100.00;96423.31;5022494;28;20485;-40
2023/08/06 07:52:15;;;;;;;3.45;0.60;;;15.00;99.90;;;14.68;100.00;96436.41;5024115;28;20060;-38
2023/08/06 07:54:41;;;;;;;0.90;0.40;;;15.10;99.90;;;14.76;100.00;96430.56;5027188;28;20021;-38
2023/08/06 07:57:07;;;;;;;0.85;0.40;;;15.20;99.90;;;15.00;100.00;96435.97;5027477;28;20039;-37
2023/08/06 07:59:33;;;;;;;1.13;0.57;;;15.40;99.90;;;15.21;100.00;96430.94;5034875;28;20024;-39
2023/08/06 08:01:58;;;;;;;0.65;0.40;;;15.60;99.90;;;15.34;100.00;96431.75;5026885;28;20036;-38
2023/08/06 08:04:24;;;;;;;3.80;0.68;;;15.80;99.90;;;15.36;100.00;96434.31;5019795;28;20064;-38
2023/08/06 08:06:50;;;;;;;1.10;0.35;;;15.90;99.90;;;15.44;100.00;96430.16;5029194;28;20499;-37
2023/08/06 08:09:16;;;;;;;0.47;0.25;;;15.90;99.90;;;15.58;100.00;96426.50;5026710;28;20040;-37
2023/08/06 08:11:42;;;;;;;0.20;0.20;;;16.10;99.90;;;15.66;100.00;96425.94;5024738;28;20139;-37
2023/08/06 08:14:07;;;;;;;1.02;0.20;;;16.20;99.90;;;15.75;100.00;96433.28;5028024;28;20033;-37
2023/08/06 08:16:33;;;;;;;0.32;0.30;;;16.30;99.90;;;15.84;100.00;96429.97;5027859;28;20036;-37
2023/08/06 08:18:59;;;;;;;1.95;0.25;;;16.40;99.90;;;16.10;100.00;96426.34;5025624;28;20040;-38
2023/08/06 08:21:25;;;;;;;1.50;0.73;;;16.70;99.90;;;16.33;100.00;96425.44;5030660;28;20532;-38
2023/08/06 08:23:51;;;;;;;0.50;0.30;;;16.90;99.90;;;16.54;100.00;96427.44;5026395;28;20453;-37
2023/08/06 08:26:17;;;;;;;0.75;0.25;;;17.10;99.90;;;16.61;100.00;96405.53;5016200;28;20032;-37
2023/08/06 08:28:43;;;;;;;0.20;0.20;;;17.30;99.90;;;16.84;100.00;96405.63;5029248;28;20085;-36
2023/08/06 08:31:11;;;;;;;0.80;0.22;;;17.40;99.90;;;17.35;100.00;96425.59;5009799;28;21576;-37
2023/08/06 08:33:39;;;;;;;2.10;0.10;;;17.70;99.90;;;17.56;100.00;96429.19;5018003;28;20056;-37
2023/08/06 08:36:05;;;;;;;0.63;0.20;;;18.10;99.90;;;17.70;100.00;96425.41;5022067;28;20075;-36
2023/08/06 08:38:31;;;;;;;1.23;0.20;;;18.10;99.90;;;17.73;100.00;96429.66;5005083;28;20866;-37
2023/08/06 08:40:57;;;;;;;0.70;0.17;;;18.20;99.90;;;17.66;100.00;96429.31;5019555;28;20531;-37
2023/08/06 08:43:23;;;;;;;0.10;0.10;;;18.20;99.90;;;17.56;100.00;96415.84;5023262;28;20032;-36
2023/08/06 08:46:00;;;;;;;0.10;0.10;;;18.20;99.90;;;17.64;100.00;96428.59;5021618;28;20052;-37
2023/08/06 08:48:29;;;;;;;0.20;0.10;;;18.00;99.90;;;17.33;100.00;96425.69;5022954;28;20033;-38
2023/08/06 08:50:56;;;;;;;0.28;0.20;;;17.90;99.90;;;17.31;100.00;96435.63;5025325;28;20033;-36
2023/08/06 08:53:22;;;;;;;0.85;0.10;;;17.90;99.90;;;17.06;100.00;96428.75;5020877;28;20409;-36
2023/08/06 08:55:49;;;;;;;0.50;0.43;;;17.70;99.90;;;16.83;100.00;96429.66;5018809;28;20068;-36
2023/08/06 08:58:15;;;;;;;0.10;0.10;;;17.50;99.90;;;16.73;100.00;96432.19;5018302;28;20041;-36
2023/08/06 09:00:42;;;;;;;0.10;0.10;;;17.30;99.90;;;16.68;100.00;96437.84;5013520;28;20049;-37
2023/08/06 09:03:08;;;;;;;1.45;0.40;;;17.30;99.90;;;16.66;100.00;96433.63;5025582;28;20045;-37
2023/08/06 09:05:34;;;;;;;1.00;0.30;;;17.30;99.90;;;16.73;100.00;96426.88;5022767;28;20279;-36
2023/08/06 09:08:04;;;;;;;0.43;0.40;;;17.20;99.90;;;16.74;100.00;96428.56;5021695;28;20527;-36
2023/08/06 09:10:30;;;;;;;0.52;0.20;;;17.20;99.90;;;16.74;100.00;96433.88;5028022;28;20074;-37
2023/08/06 09:12:58;;;;;;;1.60;0.17;;;17.10;99.90;;;16.65;100.00;96432.75;5019101;28;20044;-36
2023/08/06 09:15:25;;;;;;;1.17;0.40;;;17.20;99.90;;;16.66;100.00;96439.81;5015686;28;20056;-37
2023/08/06 09:17:53;;;;;;;0.32;0.10;;;17.20;99.90;;;16.77;100.00;96449.63;5013508;28;20072;-36
2023/08/06 09:20:19;;;;;;;0.43;0.20;;;17.40;99.90;;;17.02;100.00;96437.09;5022261;28;20033;-36
2023/08/06 09:22:45;;;;;;;3.90;0.32;;;17.60;99.90;;;17.32;100.00;96447.16;5015433;28;20160;-37
2023/08/06 09:25:13;;;;;;;0.40;0.20;;;17.80;99.90;;;17.44;100.00;96432.84;5025126;28;21090;-37
2023/08/06 09:27:39;;;;;;;0.43;0.10;;;17.90;99.90;;;17.51;100.00;96442.03;5014265;28;20043;-37
2023/08/06 09:30:07;;;;;;;0.57;0.20;;;18.00;99.90;;;17.63;100.00;96444.72;5030899;28;20025;-37
2023/08/06 09:32:48;;;;;;;0.40;0.20;;;18.20;99.90;;;17.70;100.00;96443.25;5034346;28;20029;-37
2023/08/06 09:35:18;;;;;;;0.55;0.20;;;18.30;99.90;;;17.74;100.00;96463.34;5028709;28;20435;-37
2023/08/06 09:37:45;;;;;;;0.17;0.17;;;18.30;99.90;;;17.67;100.00;96457.66;5028724;28;20512;-37
2023/08/06 09:40:31;;;;;;;0.15;0.10;;;18.20;99.90;;;17.43;100.00;96459.63;5020935;28;20068;-37
2023/08/06 09:42:58;;;;;;;0.20;0.20;;;18.00;99.90;;;17.18;100.00;96464.22;5018956;28;20226;-36
2023/08/06 09:45:33;;;;;;;0.40;0.20;;;17.70;99.90;;;16.90;100.00;96463.69;5026860;28;20035;-36
2023/08/06 09:48:02;;;;;;;0.57;0.20;;;17.50;99.90;;;16.82;100.00;96463.44;5035013;28;20366;-37
2023/08/06 09:50:33;;;;;;;0.15;0.15;;;17.40;99.90;;;16.53;100.00;96439.91;5032822;28;20037;-37
2023/08/06 09:53:00;;;;;;;0.70;0.17;;;17.20;99.90;;;16.57;100.00;96457.31;5031415;28;20060;-38
2023/08/06 09:55:27;;;;;;;0.25;0.10;;;17.10;99.90;;;16.59;100.00;96459.88;5016736;28;20480;-37
2023/08/06 09:57:54;;;;;;;0.63;0.10;;;17.00;99.90;;;16.50;100.00;96458.75;5024918;28;20043;-38
2023/08/06 10:00:20;;;;;;;0.98;0.10;;;17.00;99.90;;;16.51;100.00;96463.13;5022106;28;20032;-38
2023/08/06 10:02:46;;;;;;;1.20;0.10;;;17.00;99.90;;;16.49;100.00;96465.06;5027050;28;20861;-37
2023/08/06 10:05:13;;;;;;;0.15;0.10;;;16.90;99.90;;;16.43;100.00;96457.50;5034764;28;20095;-37
2023/08/06 10:07:39;;;;;;;0.10;0.05;;;16.90;99.90;;;16.55;100.00;96458.41;5023916;28;20078;-37
2023/08/06 10:10:06;;;;;;;0.20;0.10;;;17.00;99.90;;;16.52;100.00;96471.94;5026472;28;20043;-36